sensor_id;sensor_type;location;lat;lon;timestamp;pressure;altitude;pressure_sealevel;temperature;humidity
68320;BME280;55168;51.120;17.024;2023-03-20T00:00:00;100100;;;8.3;100.0
68320;BME280;55168;51.120;17.024;2023-03-20T00:01:00;100100;;;8.3;100.0
68320;BME280;55168;51.120;17.024;2023-03-20T00:02:00;100100;;;8.3;100.0
68320;BME280;55168;51.120;17.024;2023-03-20T00:03:00;100100;;;8.3;100.0
68320;BME280;55168;51.120;17.024;2023-03-20T00:04:00;100100;;;8.3;100.0
68320;BME280;55168;51.120;17.024;2023-03-20T00:05:00;100100;;;8.4;100.0
68320;BME280;55168;51.120;17.024;2023-03-20T00:06:00;100100;;;8.3;100.0
68320;BME280;55168;51.120;17.024;2023-03-20T00:07:00;100100;;;8.3;100.0
68320;BME280;55168;51.120;17.024;2023-03-20T00:08:00;100100;;;8.3;100.0
68320;BME280;55168;51.120;17.024;2023-03-20T00:09:00;100100;;;8.3;100.0
68320;BME280;55168;51.120;17.024;2023-03-20T00:10:00;100100;;;8.3;100.0
68320;BME280;55168;51.120;17.024;2023-03-20T00:11:00;100100;;;8.3;100.0
68320;BME280;55168;51.120;17.024;2023-03-20T00:12:00;100100;;;8.3;100.0
68320;BME280;55168;51.120;17.024;2023-03-20T00:13:00;100100;;;8.3;100.0
68320;BME280;55168;51.120;17.024;2023-03-20T00:15:00;100100;;;8.3;100.0
68320;BME280;55168;51.120;17.024;2023-03-20T00:16:00;100100;;;8.3;100.0
68320;BME280;55168;51.120;17.024;2023-03-20T00:17:00;100100;;;8.3;100.0
68320;BME280;55168;51.120;17.024;2023-03-20T00:18:00;100100;;;8.3;100.0
68320;BME280;55168;51.120;17.024;2023-03-20T00:19:00;100100;;;8.3;100.0
68320;BME280;55168;51.120;17.024;2023-03-20T00:20:00;100100;;;8.3;100.0
68320;BME280;55168;51.120;17.024;2023-03-20T00:21:00;100100;;;8.3;100.0
68320;BME280;55168;51.120;17.024;2023-03-20T00:22:00;100100;;;8.3;100.0
68320;BME280;55168;51.120;17.024;2023-03-20T00:23:00;100100;;;8.3;100.0
68320;BME280;55168;51.120;17.024;2023-03-20T00:24:00;100100;;;8.3;100.0
68320;BME280;55168;51.120;17.024;2023-03-20T00:25:00;100100;;;8.4;100.0
68320;BME280;55168;51.120;17.024;2023-03-20T00:26:00;100100;;;8.4;100.0
68320;BME280;55168;51.120;17.024;2023-03-20T00:27:00;100100;;;8.4;100.0
68320;BME280;55168;51.120;17.024;2023-03-20T00:28:22;100100;;;8.4;100.0
68320;BME280;55168;51.120;17.024;2023-03-20T00:29:00;100100;;;8.4;100.0
68320;BME280;55168;51.120;17.024;2023-03-20T00:30:00;100100;;;8.4;100.0
68320;BME280;55168;51.120;17.024;2023-03-20T00:31:00;100100;;;8.4;100.0
68320;BME280;55168;51.120;17.024;2023-03-20T00:32:00;100100;;;8.4;100.0
68320;BME280;55168;51.120;17.024;2023-03-20T00:33:00;100090;;;8.4;100.0
68320;BME280;55168;51.120;17.024;2023-03-20T00:34:01;100090;;;8.4;100.0
68320;BME280;55168;51.120;17.024;2023-03-20T00:35:00;100090;;;8.4;100.0
68320;BME280;55168;51.120;17.024;2023-03-20T00:36:00;100090;;;8.4;100.0
68320;BME280;55168;51.120;17.024;2023-03-20T00:37:00;100100;;;8.4;100.0
68320;BME280;55168;51.120;17.024;2023-03-20T00:38:00;100100;;;8.4;100.0
68320;BME280;55168;51.120;17.024;2023-03-20T00:39:00;100100;;;8.4;100.0
68320;BME280;55168;51.120;17.024;2023-03-20T00:40:00;100090;;;8.4;100.0
68320;BME280;55168;51.120;17.024;2023-03-20T00:41:00;100090;;;8.4;100.0
68320;BME280;55168;51.120;17.024;2023-03-20T00:42:01;100100;;;8.4;100.0
68320;BME280;55168;51.120;17.024;2023-03-20T00:43:01;100090;;;8.4;100.0
68320;BME280;55168;51.120;17.024;2023-03-20T00:44:02;100090;;;8.4;100.0
68320;BME280;55168;51.120;17.024;2023-03-20T00:45:00;100090;;;8.4;100.0
68320;BME280;55168;51.120;17.024;2023-03-20T00:46:00;100090;;;8.4;100.0
68320;BME280;55168;51.120;17.024;2023-03-20T00:47:01;100090;;;8.4;100.0
68320;BME280;55168;51.120;17.024;2023-03-20T00:48:00;100090;;;8.3;100.0
68320;BME280;55168;51.120;17.024;2023-03-20T00:49:00;100090;;;8.3;100.0
68320;BME280;55168;51.120;17.024;2023-03-20T00:50:00;100100;;;8.4;100.0
68320;BME280;55168;51.120;17.024;2023-03-20T00:51:00;100090;;;8.3;100.0
68320;BME280;55168;51.120;17.024;2023-03-20T00:52:00;100090;;;8.3;100.0
68320;BME280;55168;51.120;17.024;2023-03-20T00:53:00;100090;;;8.3;100.0
68320;BME280;55168;51.120;17.024;2023-03-20T00:54:00;100090;;;8.3;100.0
68320;BME280;55168;51.120;17.024;2023-03-20T00:55:00;100090;;;8.3;100.0
68320;BME280;55168;51.120;17.024;2023-03-20T00:56:00;100090;;;8.4;100.0
68320;BME280;55168;51.120;17.024;2023-03-20T00:57:01;100100;;;8.4;100.0
68320;BME280;55168;51.120;17.024;2023-03-20T00:58:00;100090;;;8.3;100.0
68320;BME280;55168;51.120;17.024;2023-03-20T00:59:00;100090;;;8.3;100.0
68320;BME280;55168;51.120;17.024;2023-03-20T01:00:03;100090;;;8.3;100.0
68320;BME280;55168;51.120;17.024;2023-03-20T01:01:00;100090;;;8.3;100.0
68320;BME280;55168;51.120;17.024;2023-03-20T01:02:00;100090;;;8.4;100.0
68320;BME280;55168;51.120;17.024;2023-03-20T01:03:00;100090;;;8.4;100.0
68320;BME280;55168;51.120;17.024;2023-03-20T01:04:00;100090;;;8.4;100.0
68320;BME280;55168;51.120;17.024;2023-03-20T01:05:00;100090;;;8.4;100.0
68320;BME280;55168;51.120;17.024;2023-03-20T01:06:00;100090;;;8.4;100.0
68320;BME280;55168;51.120;17.024;2023-03-20T01:07:00;100090;;;8.4;100.0
68320;BME280;55168;51.120;17.024;2023-03-20T01:08:00;100090;;;8.4;100.0
68320;BME280;55168;51.120;17.024;2023-03-20T01:09:00;100090;;;8.4;100.0
68320;BME280;55168;51.120;17.024;2023-03-20T01:10:00;100090;;;8.4;100.0
68320;BME280;55168;51.120;17.024;2023-03-20T01:11:00;100090;;;8.4;100.0
68320;BME280;55168;51.120;17.024;2023-03-20T01:12:00;100080;;;8.4;100.0
68320;BME280;55168;51.120;17.024;2023-03-20T01:13:00;100090;;;8.4;100.0
68320;BME280;55168;51.120;17.024;2023-03-20T01:14:01;100090;;;8.4;100.0
68320;BME280;55168;51.120;17.024;2023-03-20T01:15:00;100090;;;8.4;100.0
68320;BME280;55168;51.120;17.024;2023-03-20T01:16:00;100090;;;8.4;100.0
68320;BME280;55168;51.120;17.024;2023-03-20T01:17:00;100090;;;8.4;100.0
68320;BME280;55168;51.120;17.024;2023-03-20T01:18:00;100090;;;8.4;100.0
68320;BME280;55168;51.120;17.024;2023-03-20T01:19:00;100090;;;8.4;100.0
68320;BME280;55168;51.120;17.024;2023-03-20T01:20:00;100090;;;8.4;100.0
68320;BME280;55168;51.120;17.024;2023-03-20T01:21:00;100090;;;8.4;100.0
68320;BME280;55168;51.120;17.024;2023-03-20T01:22:00;100090;;;8.4;100.0
68320;BME280;55168;51.120;17.024;2023-03-20T01:23:00;100090;;;8.4;100.0
68320;BME280;55168;51.120;17.024;2023-03-20T01:24:00;100090;;;8.4;100.0
68320;BME280;55168;51.120;17.024;2023-03-20T01:25:00;100090;;;8.4;100.0
68320;BME280;55168;51.120;17.024;2023-03-20T01:26:00;100090;;;8.4;100.0
68320;BME280;55168;51.120;17.024;2023-03-20T01:27:00;100090;;;8.4;100.0
68320;BME280;55168;51.120;17.024;2023-03-20T01:28:00;100090;;;8.4;100.0
68320;BME280;55168;51.120;17.024;2023-03-20T01:29:00;100090;;;8.4;100.0
68320;BME280;55168;51.120;17.024;2023-03-20T01:30:00;100090;;;8.4;100.0
68320;BME280;55168;51.120;17.024;2023-03-20T01:31:00;100090;;;8.4;100.0
68320;BME280;55168;51.120;17.024;2023-03-20T01:32:00;100100;;;8.4;100.0
68320;BME280;55168;51.120;17.024;2023-03-20T01:33:00;100100;;;8.4;100.0
68320;BME280;55168;51.120;17.024;2023-03-20T01:34:01;100100;;;8.4;100.0
68320;BME280;55168;51.120;17.024;2023-03-20T01:35:00;100100;;;8.4;100.0
68320;BME280;55168;51.120;17.024;2023-03-20T01:36:00;100100;;;8.4;100.0
68320;BME280;55168;51.120;17.024;2023-03-20T01:37:00;100100;;;8.4;100.0
68320;BME280;55168;51.120;17.024;2023-03-20T01:38:00;100100;;;8.4;100.0
68320;BME280;55168;51.120;17.024;2023-03-20T01:39:00;100100;;;8.4;100.0
68320;BME280;55168;51.120;17.024;2023-03-20T01:40:00;100100;;;8.4;100.0
68320;BME280;55168;51.120;17.024;2023-03-20T01:41:01;100100;;;8.4;100.0
68320;BME280;55168;51.120;17.024;2023-03-20T01:42:00;100100;;;8.4;100.0
68320;BME280;55168;51.120;17.024;2023-03-20T01:43:00;100100;;;8.4;100.0
68320;BME280;55168;51.120;17.024;2023-03-20T01:44:00;100100;;;8.4;100.0
68320;BME280;55168;51.120;17.024;2023-03-20T01:45:00;100100;;;8.4;100.0
68320;BME280;55168;51.120;17.024;2023-03-20T01:46:08;100110;;;8.4;100.0
68320;BME280;55168;51.120;17.024;2023-03-20T01:47:00;100110;;;8.4;100.0
68320;BME280;55168;51.120;17.024;2023-03-20T01:48:02;100100;;;8.4;100.0
68320;BME280;55168;51.120;17.024;2023-03-20T01:49:06;100110;;;8.4;100.0
68320;BME280;55168;51.120;17.024;2023-03-20T01:51:00;100110;;;8.4;100.0
68320;BME280;55168;51.120;17.024;2023-03-20T01:52:00;100110;;;8.4;100.0
68320;BME280;55168;51.120;17.024;2023-03-20T01:53:02;100110;;;8.4;100.0
68320;BME280;55168;51.120;17.024;2023-03-20T01:54:01;100110;;;8.4;100.0
68320;BME280;55168;51.120;17.024;2023-03-20T01:55:00;100110;;;8.4;100.0
68320;BME280;55168;51.120;17.024;2023-03-20T01:56:00;100110;;;8.4;100.0
68320;BME280;55168;51.120;17.024;2023-03-20T01:58:01;100110;;;8.4;100.0
68320;BME280;55168;51.120;17.024;2023-03-20T01:59:02;100110;;;8.4;100.0
68320;BME280;55168;51.120;17.024;2023-03-20T02:00:01;100110;;;8.4;100.0
68320;BME280;55168;51.120;17.024;2023-03-20T02:01:00;100110;;;8.4;100.0
68320;BME280;55168;51.120;17.024;2023-03-20T02:02:00;100120;;;8.4;100.0
68320;BME280;55168;51.120;17.024;2023-03-20T02:03:00;100110;;;8.4;100.0
68320;BME280;55168;51.120;17.024;2023-03-20T02:04:00;100120;;;8.4;100.0
68320;BME280;55168;51.120;17.024;2023-03-20T02:05:02;100110;;;8.3;100.0
68320;BME280;55168;51.120;17.024;2023-03-20T02:06:00;100110;;;8.3;100.0
68320;BME280;55168;51.120;17.024;2023-03-20T02:07:00;100120;;;8.3;100.0
68320;BME280;55168;51.120;17.024;2023-03-20T02:08:10;100120;;;8.3;100.0
68320;BME280;55168;51.120;17.024;2023-03-20T02:09:00;100120;;;8.3;100.0
68320;BME280;55168;51.120;17.024;2023-03-20T02:10:00;100120;;;8.3;100.0
68320;BME280;55168;51.120;17.024;2023-03-20T02:11:00;100120;;;8.3;100.0
68320;BME280;55168;51.120;17.024;2023-03-20T02:12:00;100120;;;8.3;100.0
68320;BME280;55168;51.120;17.024;2023-03-20T02:13:01;100110;;;8.3;100.0
68320;BME280;55168;51.120;17.024;2023-03-20T02:14:00;100120;;;8.3;100.0
68320;BME280;55168;51.120;17.024;2023-03-20T02:15:00;100120;;;8.3;100.0
68320;BME280;55168;51.120;17.024;2023-03-20T02:17:01;100120;;;8.3;100.0
68320;BME280;55168;51.120;17.024;2023-03-20T02:18:00;100120;;;8.2;100.0
68320;BME280;55168;51.120;17.024;2023-03-20T02:19:00;100120;;;8.2;100.0
68320;BME280;55168;51.120;17.024;2023-03-20T02:31:05;100120;;;8.1;100.0
68320;BME280;55168;51.120;17.024;2023-03-20T02:34:07;100120;;;8.1;100.0
68320;BME280;55168;51.120;17.024;2023-03-20T02:40:09;100120;;;8.0;100.0
68320;BME280;55168;51.120;17.024;2023-03-20T02:41:05;100120;;;8.0;100.0
68320;BME280;55168;51.120;17.024;2023-03-20T02:43:18;100120;;;8.0;100.0
68320;BME280;55168;51.120;17.024;2023-03-20T02:45:16;100120;;;8.0;100.0
68320;BME280;55168;51.120;17.024;2023-03-20T02:47:02;100120;;;8.0;100.0
68320;BME280;55168;51.120;17.024;2023-03-20T02:48:04;100120;;;8.0;100.0
68320;BME280;55168;51.120;17.024;2023-03-20T02:49:02;100120;;;8.0;100.0
68320;BME280;55168;51.120;17.024;2023-03-20T02:51:02;100120;;;7.9;100.0
68320;BME280;55168;51.120;17.024;2023-03-20T02:52:03;100120;;;7.9;100.0
68320;BME280;55168;51.120;17.024;2023-03-20T02:55:09;100120;;;7.9;100.0
68320;BME280;55168;51.120;17.024;2023-03-20T02:56:04;100120;;;7.9;100.0
68320;BME280;55168;51.120;17.024;2023-03-20T02:57:01;100120;;;7.9;100.0
68320;BME280;55168;51.120;17.024;2023-03-20T02:58:03;100120;;;7.9;100.0
68320;BME280;55168;51.120;17.024;2023-03-20T02:59:05;100120;;;7.9;100.0
68320;BME280;55168;51.120;17.024;2023-03-20T03:00:05;100120;;;7.9;100.0
68320;BME280;55168;51.120;17.024;2023-03-20T03:02:03;100120;;;7.9;100.0
68320;BME280;55168;51.120;17.024;2023-03-20T03:03:03;100120;;;7.9;100.0
68320;BME280;55168;51.120;17.024;2023-03-20T03:04:03;100120;;;7.9;100.0
68320;BME280;55168;51.120;17.024;2023-03-20T03:05:01;100120;;;7.9;100.0
68320;BME280;55168;51.120;17.024;2023-03-20T03:06:03;100120;;;7.9;100.0
68320;BME280;55168;51.120;17.024;2023-03-20T03:07:00;100120;;;7.9;100.0
68320;BME280;55168;51.120;17.024;2023-03-20T03:08:00;100120;;;7.9;100.0
68320;BME280;55168;51.120;17.024;2023-03-20T03:09:02;100120;;;7.9;100.0
68320;BME280;55168;51.120;17.024;2023-03-20T03:10:02;100120;;;7.9;100.0
68320;BME280;55168;51.120;17.024;2023-03-20T03:11:02;100120;;;7.9;100.0
68320;BME280;55168;51.120;17.024;2023-03-20T03:12:02;100120;;;7.9;100.0
68320;BME280;55168;51.120;17.024;2023-03-20T03:13:00;100120;;;7.9;100.0
68320;BME280;55168;51.120;17.024;2023-03-20T03:14:00;100120;;;7.9;100.0
68320;BME280;55168;51.120;17.024;2023-03-20T03:15:01;100120;;;7.8;100.0
68320;BME280;55168;51.120;17.024;2023-03-20T03:16:01;100120;;;7.8;100.0
68320;BME280;55168;51.120;17.024;2023-03-20T03:17:00;100120;;;7.8;100.0
68320;BME280;55168;51.120;17.024;2023-03-20T03:18:00;100120;;;7.8;100.0
68320;BME280;55168;51.120;17.024;2023-03-20T03:19:08;100120;;;7.8;100.0
68320;BME280;55168;51.120;17.024;2023-03-20T03:20:02;100120;;;7.8;100.0
68320;BME280;55168;51.120;17.024;2023-03-20T03:21:00;100120;;;7.8;100.0
68320;BME280;55168;51.120;17.024;2023-03-20T03:22:00;100120;;;7.8;100.0
68320;BME280;55168;51.120;17.024;2023-03-20T03:23:00;100120;;;7.8;100.0
68320;BME280;55168;51.120;17.024;2023-03-20T03:24:00;100120;;;7.8;100.0
68320;BME280;55168;51.120;17.024;2023-03-20T03:25:00;100120;;;7.8;100.0
68320;BME280;55168;51.120;17.024;2023-03-20T03:26:00;100120;;;7.8;100.0
68320;BME280;55168;51.120;17.024;2023-03-20T03:27:01;100120;;;7.8;100.0
68320;BME280;55168;51.120;17.024;2023-03-20T03:29:01;100120;;;7.9;100.0
68320;BME280;55168;51.120;17.024;2023-03-20T03:30:02;100120;;;7.8;100.0
68320;BME280;55168;51.120;17.024;2023-03-20T03:31:00;100120;;;7.8;100.0
68320;BME280;55168;51.120;17.024;2023-03-20T03:32:00;100120;;;7.8;100.0
68320;BME280;55168;51.120;17.024;2023-03-20T03:34:00;100120;;;7.8;100.0
68320;BME280;55168;51.120;17.024;2023-03-20T03:35:00;100120;;;7.8;100.0
68320;BME280;55168;51.120;17.024;2023-03-20T03:38:03;100120;;;7.8;100.0
68320;BME280;55168;51.120;17.024;2023-03-20T03:39:03;100120;;;7.8;100.0
68320;BME280;55168;51.120;17.024;2023-03-20T03:40:02;100120;;;7.8;100.0
68320;BME280;55168;51.120;17.024;2023-03-20T03:41:04;100120;;;7.8;100.0
68320;BME280;55168;51.120;17.024;2023-03-20T03:43:01;100120;;;7.8;100.0
68320;BME280;55168;51.120;17.024;2023-03-20T03:44:06;100120;;;7.8;100.0
68320;BME280;55168;51.120;17.024;2023-03-20T03:45:02;100120;;;7.8;100.0
68320;BME280;55168;51.120;17.024;2023-03-20T03:46:01;100120;;;7.8;100.0
68320;BME280;55168;51.120;17.024;2023-03-20T03:47:02;100120;;;7.8;100.0
68320;BME280;55168;51.120;17.024;2023-03-20T03:48:02;100120;;;7.8;100.0
68320;BME280;55168;51.120;17.024;2023-03-20T03:49:00;100120;;;7.8;100.0
68320;BME280;55168;51.120;17.024;2023-03-20T03:50:01;100120;;;7.8;100.0
68320;BME280;55168;51.120;17.024;2023-03-20T03:51:01;100120;;;7.8;100.0
68320;BME280;55168;51.120;17.024;2023-03-20T03:52:01;100110;;;7.8;100.0
68320;BME280;55168;51.120;17.024;2023-03-20T03:53:02;100110;;;7.8;100.0
68320;BME280;55168;51.120;17.024;2023-03-20T03:54:17;100110;;;7.8;100.0
68320;BME280;55168;51.120;17.024;2023-03-20T03:55:02;100110;;;7.8;100.0
68320;BME280;55168;51.120;17.024;2023-03-20T03:56:01;100110;;;7.8;100.0
68320;BME280;55168;51.120;17.024;2023-03-20T03:57:00;100110;;;7.8;100.0
68320;BME280;55168;51.120;17.024;2023-03-20T03:58:02;100110;;;7.8;100.0
68320;BME280;55168;51.120;17.024;2023-03-20T03:59:01;100120;;;7.8;100.0
68320;BME280;55168;51.120;17.024;2023-03-20T04:00:00;100110;;;7.8;100.0
68320;BME280;55168;51.120;17.024;2023-03-20T04:01:00;100120;;;7.8;100.0
68320;BME280;55168;51.120;17.024;2023-03-20T04:02:00;100120;;;7.8;100.0
68320;BME280;55168;51.120;17.024;2023-03-20T04:03:00;100120;;;7.8;100.0
68320;BME280;55168;51.120;17.024;2023-03-20T04:04:00;100120;;;7.8;100.0
68320;BME280;55168;51.120;17.024;2023-03-20T04:05:00;100120;;;7.8;100.0
68320;BME280;55168;51.120;17.024;2023-03-20T04:06:00;100120;;;7.8;100.0
68320;BME280;55168;51.120;17.024;2023-03-20T04:07:00;100120;;;7.8;100.0
68320;BME280;55168;51.120;17.024;2023-03-20T04:08:00;100120;;;7.8;100.0
68320;BME280;55168;51.120;17.024;2023-03-20T04:09:00;100120;;;7.8;100.0
68320;BME280;55168;51.120;17.024;2023-03-20T04:10:00;100130;;;7.8;100.0
68320;BME280;55168;51.120;17.024;2023-03-20T04:11:00;100120;;;7.8;100.0
68320;BME280;55168;51.120;17.024;2023-03-20T04:12:00;100120;;;7.8;100.0
68320;BME280;55168;51.120;17.024;2023-03-20T04:13:00;100130;;;7.8;100.0
68320;BME280;55168;51.120;17.024;2023-03-20T04:14:00;100130;;;7.8;100.0
68320;BME280;55168;51.120;17.024;2023-03-20T04:15:00;100130;;;7.8;100.0
68320;BME280;55168;51.120;17.024;2023-03-20T04:16:00;100130;;;7.8;100.0
68320;BME280;55168;51.120;17.024;2023-03-20T04:17:00;100130;;;7.8;100.0
68320;BME280;55168;51.120;17.024;2023-03-20T04:18:00;100130;;;7.8;100.0
68320;BME280;55168;51.120;17.024;2023-03-20T04:19:00;100130;;;7.8;100.0
68320;BME280;55168;51.120;17.024;2023-03-20T04:20:00;100130;;;7.8;100.0
68320;BME280;55168;51.120;17.024;2023-03-20T04:21:00;100130;;;7.8;100.0
68320;BME280;55168;51.120;17.024;2023-03-20T04:22:00;100130;;;7.8;100.0
68320;BME280;55168;51.120;17.024;2023-03-20T04:23:00;100130;;;7.8;100.0
68320;BME280;55168;51.120;17.024;2023-03-20T04:24:00;100130;;;7.8;100.0
68320;BME280;55168;51.120;17.024;2023-03-20T04:25:00;100130;;;7.8;100.0
68320;BME280;55168;51.120;17.024;2023-03-20T04:26:00;100130;;;7.8;100.0
68320;BME280;55168;51.120;17.024;2023-03-20T04:27:00;100130;;;7.8;100.0
68320;BME280;55168;51.120;17.024;2023-03-20T04:28:00;100130;;;7.8;100.0
68320;BME280;55168;51.120;17.024;2023-03-20T04:29:00;100130;;;7.8;100.0
68320;BME280;55168;51.120;17.024;2023-03-20T04:30:00;100130;;;7.8;100.0
68320;BME280;55168;51.120;17.024;2023-03-20T04:31:00;100130;;;7.8;100.0
68320;BME280;55168;51.120;17.024;2023-03-20T04:32:00;100130;;;7.8;100.0
68320;BME280;55168;51.120;17.024;2023-03-20T04:33:00;100130;;;7.8;100.0
68320;BME280;55168;51.120;17.024;2023-03-20T04:34:00;100130;;;7.8;100.0
68320;BME280;55168;51.120;17.024;2023-03-20T04:35:00;100130;;;7.8;100.0
68320;BME280;55168;51.120;17.024;2023-03-20T04:36:00;100130;;;7.8;100.0
68320;BME280;55168;51.120;17.024;2023-03-20T04:37:00;100130;;;7.8;100.0
68320;BME280;55168;51.120;17.024;2023-03-20T04:38:00;100140;;;7.8;100.0
68320;BME280;55168;51.120;17.024;2023-03-20T04:39:00;100130;;;7.8;100.0
68320;BME280;55168;51.120;17.024;2023-03-20T04:40:00;100140;;;7.8;100.0
68320;BME280;55168;51.120;17.024;2023-03-20T04:41:00;100130;;;7.8;100.0
68320;BME280;55168;51.120;17.024;2023-03-20T04:42:00;100130;;;7.8;100.0
68320;BME280;55168;51.120;17.024;2023-03-20T04:43:00;100130;;;7.8;100.0
68320;BME280;55168;51.120;17.024;2023-03-20T04:44:00;100130;;;7.8;100.0
68320;BME280;55168;51.120;17.024;2023-03-20T04:45:00;100130;;;7.8;100.0
68320;BME280;55168;51.120;17.024;2023-03-20T04:46:00;100130;;;7.8;100.0
68320;BME280;55168;51.120;17.024;2023-03-20T04:47:00;100140;;;7.8;100.0
68320;BME280;55168;51.120;17.024;2023-03-20T04:48:00;100130;;;7.8;100.0
68320;BME280;55168;51.120;17.024;2023-03-20T04:49:00;100130;;;7.8;100.0
68320;BME280;55168;51.120;17.024;2023-03-20T04:50:00;100140;;;7.8;100.0
68320;BME280;55168;51.120;17.024;2023-03-20T04:51:00;100140;;;7.8;100.0
68320;BME280;55168;51.120;17.024;2023-03-20T04:52:00;100140;;;7.8;100.0
68320;BME280;55168;51.120;17.024;2023-03-20T04:53:00;100140;;;7.8;100.0
68320;BME280;55168;51.120;17.024;2023-03-20T04:54:00;100140;;;7.8;100.0
68320;BME280;55168;51.120;17.024;2023-03-20T04:55:00;100140;;;7.8;100.0
68320;BME280;55168;51.120;17.024;2023-03-20T04:56:00;100140;;;7.8;100.0
68320;BME280;55168;51.120;17.024;2023-03-20T04:57:02;100140;;;7.8;100.0
68320;BME280;55168;51.120;17.024;2023-03-20T04:58:00;100140;;;7.8;100.0
68320;BME280;55168;51.120;17.024;2023-03-20T04:59:00;100150;;;7.8;100.0
68320;BME280;55168;51.120;17.024;2023-03-20T05:00:00;100140;;;7.8;100.0
68320;BME280;55168;51.120;17.024;2023-03-20T05:01:00;100140;;;7.8;100.0
68320;BME280;55168;51.120;17.024;2023-03-20T05:02:00;100150;;;7.8;100.0
68320;BME280;55168;51.120;17.024;2023-03-20T05:03:00;100150;;;7.8;100.0
68320;BME280;55168;51.120;17.024;2023-03-20T05:04:00;100150;;;7.8;100.0
68320;BME280;55168;51.120;17.024;2023-03-20T05:05:00;100150;;;7.8;100.0
68320;BME280;55168;51.120;17.024;2023-03-20T05:06:00;100150;;;7.8;100.0
68320;BME280;55168;51.120;17.024;2023-03-20T05:07:00;100150;;;7.8;100.0
68320;BME280;55168;51.120;17.024;2023-03-20T05:08:00;100150;;;7.8;100.0
68320;BME280;55168;51.120;17.024;2023-03-20T05:09:00;100150;;;7.8;100.0
68320;BME280;55168;51.120;17.024;2023-03-20T05:10:00;100150;;;7.8;100.0
68320;BME280;55168;51.120;17.024;2023-03-20T05:11:00;100150;;;7.8;100.0
68320;BME280;55168;51.120;17.024;2023-03-20T05:12:00;100150;;;7.8;100.0
68320;BME280;55168;51.120;17.024;2023-03-20T05:13:00;100150;;;7.8;100.0
68320;BME280;55168;51.120;17.024;2023-03-20T05:14:00;100150;;;7.8;100.0
68320;BME280;55168;51.120;17.024;2023-03-20T05:15:00;100150;;;7.8;100.0
68320;BME280;55168;51.120;17.024;2023-03-20T05:16:00;100150;;;7.8;100.0
68320;BME280;55168;51.120;17.024;2023-03-20T05:17:00;100150;;;7.8;100.0
68320;BME280;55168;51.120;17.024;2023-03-20T05:18:00;100150;;;7.8;100.0
68320;BME280;55168;51.120;17.024;2023-03-20T05:19:00;100150;;;7.8;100.0
68320;BME280;55168;51.120;17.024;2023-03-20T05:20:00;100150;;;7.8;100.0
68320;BME280;55168;51.120;17.024;2023-03-20T05:21:00;100150;;;7.8;100.0
68320;BME280;55168;51.120;17.024;2023-03-20T05:22:00;100150;;;7.8;100.0
68320;BME280;55168;51.120;17.024;2023-03-20T05:23:00;100150;;;7.9;100.0
68320;BME280;55168;51.120;17.024;2023-03-20T05:24:00;100150;;;7.8;100.0
68320;BME280;55168;51.120;17.024;2023-03-20T05:25:00;100150;;;7.8;100.0
68320;BME280;55168;51.120;17.024;2023-03-20T05:26:00;100150;;;7.8;100.0
68320;BME280;55168;51.120;17.024;2023-03-20T05:27:00;100150;;;7.8;100.0
68320;BME280;55168;51.120;17.024;2023-03-20T05:28:00;100150;;;7.8;100.0
68320;BME280;55168;51.120;17.024;2023-03-20T05:29:00;100150;;;7.9;100.0
68320;BME280;55168;51.120;17.024;2023-03-20T05:30:00;100160;;;7.9;100.0
68320;BME280;55168;51.120;17.024;2023-03-20T05:31:00;100150;;;7.9;100.0
68320;BME280;55168;51.120;17.024;2023-03-20T05:32:00;100160;;;7.9;100.0
68320;BME280;55168;51.120;17.024;2023-03-20T05:33:00;100160;;;7.9;100.0
68320;BME280;55168;51.120;17.024;2023-03-20T05:34:00;100160;;;7.9;100.0
68320;BME280;55168;51.120;17.024;2023-03-20T05:35:00;100160;;;7.9;100.0
68320;BME280;55168;51.120;17.024;2023-03-20T05:36:00;100170;;;7.9;100.0
68320;BME280;55168;51.120;17.024;2023-03-20T05:37:00;100170;;;7.9;100.0
68320;BME280;55168;51.120;17.024;2023-03-20T05:38:00;100170;;;7.9;100.0
68320;BME280;55168;51.120;17.024;2023-03-20T05:39:00;100170;;;7.9;100.0
68320;BME280;55168;51.120;17.024;2023-03-20T05:40:00;100170;;;7.9;100.0
68320;BME280;55168;51.120;17.024;2023-03-20T05:41:00;100170;;;7.9;100.0
68320;BME280;55168;51.120;17.024;2023-03-20T05:42:00;100180;;;7.9;100.0
68320;BME280;55168;51.120;17.024;2023-03-20T05:43:00;100180;;;7.9;100.0
68320;BME280;55168;51.120;17.024;2023-03-20T05:44:00;100170;;;8.0;100.0
68320;BME280;55168;51.120;17.024;2023-03-20T05:45:00;100170;;;8.0;100.0
68320;BME280;55168;51.120;17.024;2023-03-20T05:46:00;100170;;;8.0;100.0
68320;BME280;55168;51.120;17.024;2023-03-20T05:47:00;100170;;;8.0;100.0
68320;BME280;55168;51.120;17.024;2023-03-20T05:48:00;100170;;;8.0;100.0
68320;BME280;55168;51.120;17.024;2023-03-20T05:49:00;100170;;;8.1;100.0
68320;BME280;55168;51.120;17.024;2023-03-20T05:50:00;100170;;;8.1;100.0
68320;BME280;55168;51.120;17.024;2023-03-20T05:51:00;100170;;;8.1;100.0
68320;BME280;55168;51.120;17.024;2023-03-20T05:52:00;100170;;;8.1;100.0
68320;BME280;55168;51.120;17.024;2023-03-20T05:53:00;100170;;;8.1;100.0
68320;BME280;55168;51.120;17.024;2023-03-20T05:54:00;100180;;;8.2;100.0
68320;BME280;55168;51.120;17.024;2023-03-20T05:55:00;100170;;;8.2;100.0
68320;BME280;55168;51.120;17.024;2023-03-20T05:56:00;100170;;;8.2;100.0
68320;BME280;55168;51.120;17.024;2023-03-20T05:57:00;100180;;;8.2;100.0
68320;BME280;55168;51.120;17.024;2023-03-20T05:58:00;100170;;;8.3;100.0
68320;BME280;55168;51.120;17.024;2023-03-20T05:59:00;100170;;;8.3;100.0
68320;BME280;55168;51.120;17.024;2023-03-20T06:00:00;100170;;;8.3;100.0
68320;BME280;55168;51.120;17.024;2023-03-20T06:01:00;100170;;;8.3;100.0
68320;BME280;55168;51.120;17.024;2023-03-20T06:02:00;100170;;;8.4;100.0
68320;BME280;55168;51.120;17.024;2023-03-20T06:03:00;100180;;;8.4;100.0
68320;BME280;55168;51.120;17.024;2023-03-20T06:04:00;100170;;;8.4;100.0